Halifax, Vermont
Current Conditions -  °F | °C
As of 8:52 AM on Thursday 23 Oct 2014 (Local Time) from KAQW Reporting Station
Light Rain Light Rain  
Wind Chill: 38°   Ceiling: 800
Heat Index: 43°   Visibility: 3mi
Dew Point: 41°   Wind: 8mph
Humidity: 93%   Direction: 270°W
Pressure: 29.81"   Gusts: NA
Location:  42.7575°N, 72.7347°W
Report Text: KAQW 231252Z AUTO 27007KT 240V300 3SM -RA BR BKN008 OVC029 06/05 A2981 RMK AO2 SLP100 P0009 T00610050
Loading
Personal Weather Stations






























Interactive Weather Map
Tropical Storm Tracking
New forecast layout! Learn more

10-Day Weather Forecast

Advertisements
Track Severe Weather on mobile